createdAt,value
2023-01-07T00:00:51.135Z,95715.72
2023-01-07T00:03:17.966Z,95703.59
2023-01-07T00:05:44.588Z,95704.56
2023-01-07T00:08:11.799Z,95701.84
2023-01-07T00:10:38.258Z,95713.19
2023-01-07T00:13:04.650Z,95701.53
2023-01-07T00:15:31.019Z,95702.66
2023-01-07T00:17:57.599Z,95700.75
2023-01-07T00:20:24.140Z,95705.69
2023-01-07T00:22:50.764Z,95694.69
2023-01-07T00:25:17.812Z,95702.00
2023-01-07T00:27:44.197Z,95695.94
2023-01-07T00:30:12.226Z,95695.00
2023-01-07T00:32:53.715Z,95687.34
2023-01-07T00:35:22.905Z,95689.91
2023-01-07T00:37:50.112Z,95689.09
2023-01-07T00:40:17.781Z,95676.97
2023-01-07T00:43:00.884Z,95678.88
2023-01-07T00:45:29.000Z,95679.69
2023-01-07T00:47:56.213Z,95680.47
2023-01-07T00:50:24.739Z,95682.72
2023-01-07T00:52:51.304Z,95680.16
2023-01-07T00:55:18.473Z,95684.19
2023-01-07T00:57:45.265Z,95685.94
2023-01-07T01:00:15.704Z,95686.56
2023-01-07T01:02:42.525Z,95689.28
2023-01-07T01:05:10.183Z,95682.59
2023-01-07T01:07:37.194Z,95677.94
2023-01-07T01:10:04.955Z,95686.38
2023-01-07T01:12:33.834Z,95675.22
2023-01-07T01:15:00.379Z,95683.09
2023-01-07T01:17:28.575Z,95679.56
2023-01-07T01:19:55.033Z,95679.91
2023-01-07T01:22:21.542Z,95675.94
2023-01-07T01:24:48.924Z,95671.00
2023-01-07T01:27:15.496Z,95670.06
2023-01-07T01:29:42.580Z,95680.09
2023-01-07T01:32:11.997Z,95674.00
2023-01-07T01:34:39.072Z,95676.38
2023-01-07T01:37:05.814Z,95681.00
2023-01-07T01:39:32.250Z,95676.22
2023-01-07T01:41:58.898Z,95678.78
2023-01-07T01:44:39.001Z,95662.84
2023-01-07T01:47:17.460Z,95669.38
2023-01-07T01:49:49.745Z,95667.13
2023-01-07T01:52:17.976Z,95664.41
2023-01-07T01:54:50.385Z,95664.25
2023-01-07T01:57:19.824Z,95661.69
2023-01-07T01:59:51.536Z,95656.59
2023-01-07T02:02:24.368Z,95656.44
2023-01-07T02:04:52.398Z,95654.69
2023-01-07T02:07:19.175Z,95655.63
2023-01-07T02:09:58.195Z,95646.72
2023-01-07T02:12:36.202Z,95636.84
2023-01-07T02:15:10.869Z,95647.34
2023-01-07T02:17:52.291Z,95640.97
2023-01-07T02:20:31.300Z,95642.91
2023-01-07T02:23:51.189Z,95629.50
2023-01-07T02:26:47.289Z,95637.47
2023-01-07T02:30:18.980Z,95638.88
2023-01-07T02:33:20.157Z,95633.16
2023-01-07T02:36:13.638Z,95634.91
2023-01-07T02:38:55.636Z,95630.91
2023-01-07T02:41:31.971Z,95631.72
2023-01-07T02:44:04.549Z,95617.38
2023-01-07T02:46:35.415Z,95624.06
2023-01-07T02:49:08.244Z,95618.00
2023-01-07T02:51:36.335Z,95620.72
2023-01-07T02:54:06.666Z,95611.63
2023-01-07T02:56:47.403Z,95605.41
2023-01-07T02:59:37.110Z,95610.16
2023-01-07T03:02:20.306Z,95615.13
2023-01-07T03:05:06.549Z,95606.81
2023-01-07T03:07:45.086Z,95606.34
2023-01-07T03:10:21.244Z,95607.78
2023-01-07T03:12:54.669Z,95603.00
2023-01-07T03:15:29.116Z,95603.16
2023-01-07T03:18:01.847Z,95603.34
2023-01-07T03:20:33.347Z,95606.84
2023-01-07T03:23:05.850Z,95593.28
2023-01-07T03:25:36.439Z,95595.72
2023-01-07T03:28:05.185Z,95588.03
2023-01-07T03:30:32.835Z,95591.84
2023-01-07T03:33:03.611Z,95583.72
2023-01-07T03:35:34.557Z,95590.56
2023-01-07T03:38:03.274Z,95575.41
2023-01-07T03:40:31.038Z,95579.06
2023-01-07T03:42:59.352Z,95576.53
2023-01-07T03:45:27.828Z,95562.72
2023-01-07T03:47:57.772Z,95571.31
2023-01-07T03:50:28.893Z,95568.47
2023-01-07T03:52:56.797Z,95568.63
2023-01-07T03:55:24.274Z,95567.03
2023-01-07T03:57:53.639Z,95566.88
2023-01-07T04:00:20.832Z,95561.59
2023-01-07T04:02:55.998Z,95556.66
2023-01-07T04:05:27.214Z,95545.69
2023-01-07T04:07:53.709Z,95543.28
2023-01-07T04:10:21.812Z,95536.97
2023-01-07T04:12:48.291Z,95534.72
2023-01-07T04:15:14.700Z,95530.06
2023-01-07T04:17:41.118Z,95528.50
2023-01-07T04:20:10.910Z,95528.19
2023-01-07T04:22:37.312Z,95528.38
2023-01-07T04:25:06.130Z,95519.28
2023-01-07T04:27:33.922Z,95516.25
2023-01-07T04:30:01.060Z,95518.34
2023-01-07T04:32:30.354Z,95510.84
2023-01-07T04:34:56.743Z,95520.56
2023-01-07T04:37:23.208Z,95509.47
2023-01-07T04:39:49.975Z,95506.44
2023-01-07T04:42:16.514Z,95502.28
2023-01-07T04:44:43.864Z,95499.44
2023-01-07T04:47:11.264Z,95498.81
2023-01-07T04:49:37.913Z,95489.44
2023-01-07T04:52:05.475Z,95480.09
2023-01-07T04:54:33.030Z,95482.00
2023-01-07T04:56:59.528Z,95479.63
2023-01-07T04:59:25.952Z,95478.69
2023-01-07T05:01:53.801Z,95475.66
2023-01-07T05:04:22.067Z,95469.13
2023-01-07T05:06:48.579Z,95458.28
2023-01-07T05:09:15.258Z,95463.50
2023-01-07T05:11:42.701Z,95451.91
2023-01-07T05:14:10.878Z,95457.00
2023-01-07T05:16:37.667Z,95450.47
2023-01-07T05:19:09.615Z,95441.22
2023-01-07T05:21:40.235Z,95449.34
2023-01-07T05:24:08.089Z,95442.31
2023-01-07T05:26:35.123Z,95430.38
2023-01-07T05:29:02.264Z,95435.63
2023-01-07T05:31:28.761Z,95436.09
2023-01-07T05:33:55.170Z,95432.22
2023-01-07T05:36:22.877Z,95427.13
2023-01-07T05:38:49.472Z,95425.09
2023-01-07T05:41:16.283Z,95425.19
2023-01-07T05:43:42.774Z,95423.25
2023-01-07T05:46:09.254Z,95417.88
2023-01-07T05:48:35.729Z,95408.81
2023-01-07T05:51:02.173Z,95409.13
2023-01-07T05:53:29.237Z,95400.53
2023-01-07T05:55:56.314Z,95402.25
2023-01-07T05:58:22.798Z,95412.25
2023-01-07T06:00:49.259Z,95399.41
2023-01-07T06:03:15.685Z,95406.03
2023-01-07T06:05:42.141Z,95399.16
2023-01-07T06:08:08.686Z,95412.16
2023-01-07T06:10:36.036Z,95400.50
2023-01-07T06:13:02.872Z,95407.97
2023-01-07T06:15:29.247Z,95391.78
2023-01-07T06:17:55.798Z,95401.75
2023-01-07T06:20:22.551Z,95396.34
2023-01-07T06:22:49.092Z,95397.88
2023-01-07T06:25:15.961Z,95388.16
2023-01-07T06:27:43.019Z,95399.25
2023-01-07T06:30:11.286Z,95393.88
2023-01-07T06:32:38.654Z,95393.00
2023-01-07T06:35:06.203Z,95395.91
2023-01-07T06:37:32.885Z,95396.31
2023-01-07T06:39:59.494Z,95393.56
2023-01-07T06:42:26.114Z,95389.41
2023-01-07T06:44:53.228Z,95387.16
2023-01-07T06:47:19.856Z,95383.59
2023-01-07T06:49:46.242Z,95383.22
2023-01-07T06:52:12.810Z,95381.13
2023-01-07T06:54:39.205Z,95381.63
2023-01-07T06:57:05.597Z,95375.91
2023-01-07T06:59:32.000Z,95376.28
2023-01-07T07:01:59.164Z,95381.78
2023-01-07T07:04:25.665Z,95381.59
2023-01-07T07:06:52.039Z,95380.94
2023-01-07T07:09:18.407Z,95379.19
2023-01-07T07:11:44.841Z,95377.75
2023-01-07T07:14:11.228Z,95383.47
2023-01-07T07:16:37.734Z,95379.63
2023-01-07T07:19:04.762Z,95374.84
2023-01-07T07:21:31.184Z,95369.13
2023-01-07T07:23:59.757Z,95366.72
2023-01-07T07:26:26.248Z,95371.00
2023-01-07T07:28:52.709Z,95361.28
2023-01-07T07:31:19.119Z,95368.69
2023-01-07T07:33:45.556Z,95364.56
2023-01-07T07:36:12.601Z,95358.28
2023-01-07T07:38:39.184Z,95362.59
2023-01-07T07:41:05.585Z,95354.72
2023-01-07T07:43:34.540Z,95342.47
2023-01-07T07:46:00.944Z,95351.53
2023-01-07T07:48:27.389Z,95349.88
2023-01-07T07:50:53.891Z,95352.09
2023-01-07T07:53:21.188Z,95352.25
2023-01-07T07:55:47.759Z,95342.19
2023-01-07T07:58:14.751Z,95345.59
2023-01-07T08:00:41.282Z,95333.06
2023-01-07T08:03:08.076Z,95339.28
2023-01-07T08:05:34.704Z,95335.00
2023-01-07T08:08:01.503Z,95348.19
2023-01-07T08:10:28.901Z,95348.88
2023-01-07T08:12:55.377Z,95330.09
2023-01-07T08:15:21.778Z,95349.41
2023-01-07T08:17:48.275Z,95339.03
2023-01-07T08:20:14.733Z,95344.25
2023-01-07T08:22:41.433Z,95342.56
2023-01-07T08:25:09.981Z,95346.13
2023-01-07T08:27:37.181Z,95336.28
2023-01-07T08:30:04.320Z,95339.81
2023-01-07T08:32:30.811Z,95330.16
2023-01-07T08:34:57.470Z,95337.25
2023-01-07T08:37:23.906Z,95341.72
2023-01-07T08:39:50.325Z,95328.00
2023-01-07T08:42:17.319Z,95334.56
2023-01-07T08:44:44.627Z,95326.81
2023-01-07T08:47:11.052Z,95322.09
2023-01-07T08:49:37.434Z,95314.59
2023-01-07T08:52:04.216Z,95316.97
2023-01-07T08:54:30.621Z,95313.91
2023-01-07T08:56:57.086Z,95314.66
2023-01-07T08:59:23.521Z,95307.88
2023-01-07T09:01:50.718Z,95300.59
2023-01-07T09:04:17.195Z,95304.38
2023-01-07T09:06:43.712Z,95307.53
2023-01-07T09:09:11.145Z,95306.94
2023-01-07T09:11:37.632Z,95308.44
2023-01-07T09:14:04.037Z,95307.16
2023-01-07T09:16:30.508Z,95301.97
2023-01-07T09:18:57.592Z,95305.63
2023-01-07T09:21:24.177Z,95298.00
2023-01-07T09:23:50.626Z,95295.19
2023-01-07T09:26:17.241Z,95294.25
2023-01-07T09:28:43.635Z,95301.75
2023-01-07T09:31:10.081Z,95298.63
2023-01-07T09:33:36.572Z,95300.84
2023-01-07T09:36:04.938Z,95297.56
2023-01-07T09:38:32.272Z,95304.03
2023-01-07T09:40:58.806Z,95286.97
2023-01-07T09:44:00.153Z,95288.56
2023-01-07T09:46:18.791Z,95288.50
2023-01-07T09:48:51.007Z,95291.50
2023-01-07T09:51:23.544Z,95280.69
2023-01-07T09:53:52.304Z,95277.53
2023-01-07T09:56:22.864Z,95268.88
2023-01-07T09:58:49.715Z,95261.94
2023-01-07T10:01:27.805Z,95257.88
2023-01-07T10:04:10.497Z,95259.88
2023-01-07T10:06:46.483Z,95255.09
2023-01-07T10:09:24.282Z,95251.88
2023-01-07T10:11:59.793Z,95245.03
2023-01-07T10:14:58.018Z,95241.66
2023-01-07T10:17:37.837Z,95239.81
2023-01-07T10:20:15.226Z,95235.72
2023-01-07T10:22:51.229Z,95237.97
2023-01-07T10:25:21.675Z,95234.16
2023-01-07T10:27:49.679Z,95231.94
2023-01-07T10:30:19.587Z,95230.38
2023-01-07T10:32:47.936Z,95231.56
2023-01-07T10:35:19.872Z,95222.75
2023-01-07T10:37:47.144Z,95214.31
2023-01-07T10:40:27.013Z,95204.25
2023-01-07T10:43:00.023Z,95207.78
2023-01-07T10:45:41.335Z,95205.31
2023-01-07T10:48:39.351Z,95197.63
2023-01-07T10:51:17.704Z,95190.09
2023-01-07T10:53:56.306Z,95189.88
2023-01-07T10:56:28.464Z,95188.41
2023-01-07T10:58:55.301Z,95184.56
2023-01-07T11:01:25.829Z,95182.66
2023-01-07T11:03:54.400Z,95181.03
2023-01-07T11:06:33.556Z,95184.84
2023-01-07T11:09:02.573Z,95178.75
2023-01-07T11:11:30.501Z,95173.16
2023-01-07T11:14:00.176Z,95170.25
2023-01-07T11:16:31.189Z,95170.19
2023-01-07T11:19:03.181Z,95159.19
2023-01-07T11:21:42.992Z,95153.63
2023-01-07T11:24:31.731Z,95147.16
2023-01-07T11:27:12.648Z,95140.38
2023-01-07T11:29:43.710Z,95128.00
2023-01-07T11:32:21.301Z,95122.06
2023-01-07T11:34:55.811Z,95117.38
2023-01-07T11:37:35.621Z,95117.22
2023-01-07T11:40:19.872Z,95120.59
2023-01-07T11:42:47.880Z,95107.25
2023-01-07T11:45:16.838Z,95105.59
2023-01-07T11:47:49.694Z,95100.91
2023-01-07T11:50:28.753Z,95100.78
2023-01-07T11:53:00.143Z,95099.69
2023-01-07T11:55:28.458Z,95095.69
2023-01-07T11:58:28.969Z,95089.97
2023-01-07T12:00:43.204Z,95079.72
2023-01-07T12:03:11.879Z,95081.75
2023-01-07T12:05:40.423Z,95072.03
2023-01-07T12:08:18.166Z,95069.16
2023-01-07T12:10:45.322Z,95072.50
2023-01-07T12:13:23.741Z,95071.72
2023-01-07T12:15:55.788Z,95066.38
2023-01-07T12:18:41.924Z,95065.19
2023-01-07T12:21:24.999Z,95076.78
2023-01-07T12:24:04.575Z,95055.31
2023-01-07T12:26:40.691Z,95055.91
2023-01-07T12:29:16.524Z,95057.50
2023-01-07T12:31:56.005Z,95048.84
2023-01-07T12:34:33.338Z,95048.25
2023-01-07T12:37:04.032Z,95039.16
2023-01-07T12:39:34.879Z,95055.94
2023-01-07T12:42:08.534Z,95040.91
2023-01-07T12:44:40.024Z,95040.34
2023-01-07T12:47:31.321Z,95047.44
2023-01-07T12:50:03.266Z,95049.00
2023-01-07T12:52:38.846Z,95031.44
2023-01-07T12:55:16.362Z,95039.09
2023-01-07T12:57:49.034Z,95040.22
2023-01-07T13:00:18.766Z,95023.16
2023-01-07T13:02:53.865Z,95035.69
2023-01-07T13:05:24.923Z,95039.69
2023-01-07T13:07:54.763Z,95031.19
2023-01-07T13:10:25.026Z,95038.50
2023-01-07T13:12:56.113Z,95020.88
2023-01-07T13:15:26.266Z,95031.72
2023-01-07T13:17:54.831Z,95034.59
2023-01-07T13:20:43.292Z,95034.09
2023-01-07T13:23:20.292Z,95037.25
2023-01-07T13:26:01.539Z,95026.72
2023-01-07T13:28:57.617Z,95024.84
2023-01-07T13:31:41.329Z,95029.31
2023-01-07T13:34:20.948Z,95029.09
2023-01-07T13:36:56.893Z,95031.94
2023-01-07T13:39:39.649Z,95023.81
2023-01-07T13:42:18.892Z,95023.84
2023-01-07T13:45:01.248Z,95024.38
2023-01-07T13:47:39.603Z,95022.13
2023-01-07T13:50:16.588Z,95030.66
2023-01-07T13:52:45.256Z,95023.31
2023-01-07T13:55:40.145Z,95021.56
2023-01-07T13:58:49.397Z,95024.06
2023-01-07T14:01:17.032Z,95015.66
2023-01-07T14:03:46.301Z,95008.59
2023-01-07T14:06:44.967Z,95014.72
2023-01-07T14:09:33.624Z,95022.38
2023-01-07T14:12:32.813Z,95018.66
2023-01-07T14:15:40.571Z,95022.22
2023-01-07T14:18:34.176Z,95019.09
2023-01-07T14:21:10.637Z,95021.88
2023-01-07T14:23:44.105Z,95013.38
2023-01-07T14:26:22.167Z,95015.56
2023-01-07T14:29:29.544Z,95014.81
2023-01-07T14:32:28.223Z,95012.09
2023-01-07T14:34:58.931Z,95020.00
2023-01-07T14:37:37.240Z,95022.63
2023-01-07T14:40:41.159Z,95026.47
2023-01-07T14:43:40.830Z,95032.41
2023-01-07T14:46:08.074Z,95014.97
2023-01-07T14:48:36.291Z,95013.38
2023-01-07T14:51:32.737Z,95017.97
2023-01-07T14:54:30.495Z,95018.41
2023-01-07T14:57:06.577Z,95029.91
2023-01-07T14:59:53.946Z,95016.41
2023-01-07T15:02:49.965Z,95016.38
2023-01-07T15:05:51.807Z,95017.69
2023-01-07T15:08:39.896Z,95018.28
2023-01-07T15:11:27.388Z,95013.31
2023-01-07T15:14:16.006Z,95020.94
2023-01-07T15:16:45.891Z,95017.09
2023-01-07T15:19:12.587Z,95013.69
2023-01-07T15:21:52.297Z,95013.44
2023-01-07T15:24:28.010Z,95011.81
2023-01-07T15:27:02.018Z,95017.22
2023-01-07T15:29:39.119Z,95020.16
2023-01-07T15:32:12.730Z,95007.31
2023-01-07T15:34:39.988Z,95016.09
2023-01-07T15:37:08.554Z,95023.47
2023-01-07T15:39:40.475Z,95017.25
2023-01-07T15:42:14.167Z,95017.56
2023-01-07T15:44:41.862Z,95021.66
2023-01-07T15:47:30.437Z,95012.88
2023-01-07T15:49:57.312Z,95030.53
2023-01-07T15:52:26.888Z,95027.28
2023-01-07T15:54:54.015Z,95018.88
2023-01-07T15:57:26.142Z,95020.03
2023-01-07T15:59:53.455Z,95022.44
2023-01-07T16:02:24.568Z,95030.47
2023-01-07T16:04:52.948Z,95020.53
2023-01-07T16:07:27.004Z,95023.09
2023-01-07T16:09:55.241Z,95021.19
2023-01-07T16:12:34.458Z,95015.13
2023-01-07T16:15:03.004Z,95018.63
2023-01-07T16:17:31.744Z,95017.84
2023-01-07T16:20:21.145Z,95020.13
2023-01-07T16:22:48.318Z,95020.47
2023-01-07T16:25:22.785Z,95029.44
2023-01-07T16:27:50.503Z,95018.28
2023-01-07T16:30:17.576Z,95015.63
2023-01-07T16:32:45.035Z,95017.66
2023-01-07T16:35:18.297Z,95010.97
2023-01-07T16:37:45.945Z,94994.69
2023-01-07T16:40:19.745Z,94997.31
2023-01-07T16:42:47.796Z,94999.16
2023-01-07T16:45:27.100Z,95001.75
2023-01-07T16:48:20.020Z,95005.22
2023-01-07T16:50:47.738Z,94995.31
2023-01-07T16:53:23.483Z,94997.66
2023-01-07T16:55:52.853Z,94992.28
2023-01-07T16:58:28.845Z,94990.63
2023-01-07T17:00:57.255Z,95002.00
2023-01-07T17:03:24.855Z,95010.28
2023-01-07T17:06:03.903Z,95019.28
2023-01-07T17:08:31.964Z,95020.59
2023-01-07T17:11:07.282Z,95022.84
2023-01-07T17:13:36.564Z,95022.91
2023-01-07T17:16:35.398Z,95022.28
2023-01-07T17:19:24.240Z,95027.53
2023-01-07T17:21:50.827Z,95025.13
2023-01-07T17:24:45.820Z,95026.88
2023-01-07T17:27:27.412Z,95027.84
2023-01-07T17:29:54.581Z,95024.69
2023-01-07T17:32:21.954Z,95005.16
2023-01-07T17:34:48.414Z,95012.84
2023-01-07T17:37:16.496Z,95004.91
2023-01-07T17:39:43.843Z,95007.34
2023-01-07T17:42:38.962Z,94999.91
2023-01-07T17:45:08.914Z,95003.25
2023-01-07T17:47:35.307Z,95008.97
2023-01-07T17:50:04.604Z,95013.91
2023-01-07T17:52:31.124Z,95010.59
2023-01-07T17:54:57.646Z,95014.88
2023-01-07T17:57:24.042Z,95019.00
2023-01-07T17:59:51.163Z,95023.59
2023-01-07T18:02:21.123Z,95020.75
2023-01-07T18:04:47.593Z,95029.00
2023-01-07T18:07:15.566Z,95021.88
2023-01-07T18:09:42.315Z,95021.09
2023-01-07T18:12:33.700Z,95016.47
2023-01-07T18:15:02.537Z,95019.19
2023-01-07T18:17:30.326Z,95020.13
2023-01-07T18:19:56.993Z,95024.25
2023-01-07T18:22:24.541Z,95018.69
2023-01-07T18:24:51.468Z,95015.88
2023-01-07T18:27:18.793Z,95016.34
2023-01-07T18:29:48.031Z,95012.06
2023-01-07T18:32:16.667Z,95022.50
2023-01-07T18:34:46.517Z,95022.19
2023-01-07T18:37:14.375Z,95035.97
2023-01-07T18:39:40.753Z,95023.47
2023-01-07T18:42:07.775Z,95037.09
2023-01-07T18:44:37.274Z,95033.44
2023-01-07T18:47:03.993Z,95029.00
2023-01-07T18:49:30.439Z,95033.28
2023-01-07T18:51:57.974Z,95025.66
2023-01-07T18:54:24.354Z,95021.38
2023-01-07T18:56:51.682Z,95013.31
2023-01-07T18:59:18.363Z,95023.75
2023-01-07T19:01:45.860Z,95010.75
2023-01-07T19:04:12.376Z,95014.53
2023-01-07T19:06:38.842Z,95009.00
2023-01-07T19:09:06.582Z,95015.66
2023-01-07T19:11:33.041Z,95004.88
2023-01-07T19:14:01.522Z,95016.28
2023-01-07T19:16:30.953Z,95003.47
2023-01-07T19:18:57.406Z,95014.88
2023-01-07T19:21:25.887Z,95002.03
2023-01-07T19:23:52.649Z,95002.81
2023-01-07T19:26:20.539Z,95001.69
2023-01-07T19:28:47.178Z,95007.56
2023-01-07T19:31:13.979Z,95017.19
2023-01-07T19:33:40.489Z,95012.44
2023-01-07T19:36:09.243Z,95011.50
2023-01-07T19:38:39.056Z,95007.84
2023-01-07T19:41:07.285Z,95011.97
2023-01-07T19:43:34.463Z,95011.50
2023-01-07T19:46:01.033Z,94996.91
2023-01-07T19:48:27.835Z,95006.72
2023-01-07T19:50:56.166Z,94993.75
2023-01-07T19:53:22.896Z,94994.84
2023-01-07T19:55:50.421Z,94982.47
2023-01-07T19:58:17.255Z,94991.34
2023-01-07T20:00:44.594Z,94992.28
2023-01-07T20:03:11.142Z,94993.38
2023-01-07T20:05:37.801Z,94990.50
2023-01-07T20:08:04.978Z,94989.56
2023-01-07T20:10:31.467Z,94982.91
2023-01-07T20:12:57.951Z,94969.63
2023-01-07T20:15:24.481Z,94977.03
2023-01-07T20:17:51.583Z,94963.75
2023-01-07T20:20:18.179Z,94971.06
2023-01-07T20:22:45.571Z,94966.00
2023-01-07T20:25:12.611Z,94969.16
2023-01-07T20:27:39.280Z,94966.47
2023-01-07T20:30:07.968Z,94962.06
2023-01-07T20:32:34.557Z,94953.97
2023-01-07T20:35:01.757Z,94952.88
2023-01-07T20:37:28.163Z,94963.97
2023-01-07T20:39:54.800Z,94954.44
2023-01-07T20:42:21.257Z,94953.66
2023-01-07T20:44:47.653Z,94949.88
2023-01-07T20:47:14.170Z,94943.84
2023-01-07T20:49:47.840Z,94948.13
2023-01-07T20:52:14.943Z,94946.53
2023-01-07T20:54:41.386Z,94948.91
2023-01-07T20:57:08.119Z,94935.13
2023-01-07T20:59:34.691Z,94932.25
2023-01-07T21:02:01.624Z,94928.66
2023-01-07T21:04:31.375Z,94938.31
2023-01-07T21:06:57.916Z,94930.53
2023-01-07T21:09:25.599Z,94929.75
2023-01-07T21:11:52.144Z,94927.38
2023-01-07T21:14:18.690Z,94927.06
2023-01-07T21:16:45.103Z,94924.03
2023-01-07T21:19:11.580Z,94930.22
2023-01-07T21:21:38.049Z,94929.56
2023-01-07T21:24:04.790Z,94919.13
2023-01-07T21:26:31.848Z,94923.72
2023-01-07T21:28:58.383Z,94911.50
2023-01-07T21:31:26.165Z,94909.63
2023-01-07T21:33:54.891Z,94910.56
2023-01-07T21:36:21.844Z,94906.13
2023-01-07T21:38:53.331Z,94903.88
2023-01-07T21:41:20.268Z,94897.72
2023-01-07T21:43:47.333Z,94892.81
2023-01-07T21:46:14.260Z,94892.31
2023-01-07T21:48:46.893Z,94878.06
2023-01-07T21:51:16.743Z,94900.41
2023-01-07T21:53:43.361Z,94904.84
2023-01-07T21:56:13.606Z,94888.22
2023-01-07T21:58:40.703Z,94899.94
2023-01-07T22:01:08.926Z,94890.28
2023-01-07T22:03:36.596Z,94885.69
2023-01-07T22:06:05.695Z,94889.31
2023-01-07T22:08:32.582Z,94890.44
2023-01-07T22:10:59.098Z,94896.28
2023-01-07T22:13:25.631Z,94894.06
2023-01-07T22:15:52.156Z,94892.78
2023-01-07T22:18:19.321Z,94899.91
2023-01-07T22:20:52.405Z,94893.56
2023-01-07T22:23:18.779Z,94896.09
2023-01-07T22:25:45.203Z,94894.81
2023-01-07T22:28:12.576Z,94894.63
2023-01-07T22:30:41.677Z,94900.03
2023-01-07T22:33:08.071Z,94902.56
2023-01-07T22:35:35.534Z,94905.25
2023-01-07T22:38:03.504Z,94901.59
2023-01-07T22:40:32.095Z,94912.84
2023-01-07T22:43:05.534Z,94902.53
2023-01-07T22:45:39.099Z,94899.03
2023-01-07T22:48:08.190Z,94907.09
2023-01-07T22:50:36.550Z,94901.69
2023-01-07T22:53:03.363Z,94896.47
2023-01-07T22:55:31.599Z,94891.06
2023-01-07T22:57:58.667Z,94875.19
2023-01-07T23:00:46.035Z,94880.47
2023-01-07T23:03:12.762Z,94881.41
2023-01-07T23:05:39.910Z,94885.19
2023-01-07T23:08:07.383Z,94875.53
2023-01-07T23:10:35.275Z,94872.72
2023-01-07T23:13:01.900Z,94875.41
2023-01-07T23:15:28.374Z,94868.25
2023-01-07T23:17:54.910Z,94866.84
2023-01-07T23:20:21.501Z,94860.81
2023-01-07T23:22:48.643Z,94867.31
2023-01-07T23:25:15.390Z,94862.44
2023-01-07T23:27:41.976Z,94860.88
2023-01-07T23:30:12.239Z,94857.22
2023-01-07T23:32:38.698Z,94840.25
2023-01-07T23:35:05.829Z,94845.22
2023-01-07T23:37:32.390Z,94836.69
2023-01-07T23:39:59.634Z,94836.34
2023-01-07T23:42:26.326Z,94846.31
2023-01-07T23:44:52.883Z,94840.31
2023-01-07T23:47:19.440Z,94845.09
2023-01-07T23:49:45.823Z,94838.00
2023-01-07T23:52:12.248Z,94836.59
2023-01-07T23:54:38.920Z,94839.47
2023-01-07T23:57:06.070Z,94839.31
2023-01-07T23:59:32.638Z,94831.25
